Time;durP1;ratioP1;P1;durP2;ratioP2;P2;SDS_P1;SDS_P2;PMS_P1;PMS_P2;Temp;Humidity;BMP_temperature;BMP_pressure;BME280_temperature;BME280_humidity;BME280_pressure;Samples;Min_cycle;Max_cycle;Signal;HPM_P1;HPM_P2
2021/06/19 00:00:28;;;;;;;0.95;0.82;;;25.10;81.40;;;;;;4430401;32;20454;-74
2021/06/19 00:02:53;;;;;;;0.95;0.57;;;25.10;80.60;;;;;;4432040;32;20062;-74
2021/06/19 00:05:20;;;;;;;0.30;0.30;;;25.00;80.70;;;;;;4430620;32;20186;-74
2021/06/19 00:07:45;;;;;;;0.93;0.60;;;25.00;81.30;;;;;;4429997;32;20077;-74
2021/06/19 00:10:13;;;;;;;0.75;0.47;;;24.90;81.10;;;;;;4429949;32;20587;-74
2021/06/19 00:12:39;;;;;;;2.60;0.60;;;24.80;81.30;;;;;;4429596;32;20062;-74
2021/06/19 00:15:07;;;;;;;0.45;0.45;;;24.70;82.20;;;;;;4430525;32;20082;-74
2021/06/19 00:17:34;;;;;;;2.25;1.23;;;24.70;82.40;;;;;;4430349;32;20064;-74
2021/06/19 00:20:00;;;;;;;0.50;0.45;;;24.60;81.80;;;;;;4430165;32;20440;-74
2021/06/19 00:22:25;;;;;;;0.52;0.52;;;24.70;81.90;;;;;;4430112;32;20125;-74
2021/06/19 00:24:51;;;;;;;0.57;0.52;;;24.70;82.30;;;;;;4430581;32;20078;-74
2021/06/19 00:27:16;;;;;;;0.88;0.55;;;24.60;81.90;;;;;;4430601;32;20065;-74
2021/06/19 00:29:42;;;;;;;0.62;0.60;;;24.60;82.00;;;;;;4430653;32;20086;-75
2021/06/19 00:32:07;;;;;;;0.30;0.30;;;24.60;82.20;;;;;;4423063;32;20066;-74
2021/06/19 00:34:33;;;;;;;0.57;0.55;;;24.60;82.70;;;;;;4415146;32;20069;-75
2021/06/19 00:36:58;;;;;;;6.07;0.60;;;24.60;82.50;;;;;;4415929;32;20396;-74
2021/06/19 00:39:24;;;;;;;1.35;0.60;;;24.50;82.10;;;;;;4414321;32;20066;-74
2021/06/19 00:41:49;;;;;;;0.60;0.60;;;24.60;82.20;;;;;;4414205;32;20070;-74
2021/06/19 00:44:18;;;;;;;0.30;0.30;;;24.60;82.50;;;;;;4414678;32;20069;-74
2021/06/19 00:46:43;;;;;;;5.55;1.25;;;24.70;82.50;;;;;;4414666;32;20081;-74
2021/06/19 00:49:09;;;;;;;0.50;0.50;;;24.70;82.50;;;;;;4415863;32;20065;-75
2021/06/19 00:51:35;;;;;;;1.55;1.08;;;24.60;82.50;;;;;;4415400;32;20086;-74
2021/06/19 00:54:00;;;;;;;0.50;0.50;;;24.50;83.30;;;;;;4414144;32;20515;-75
2021/06/19 00:56:26;;;;;;;0.73;0.68;;;24.50;82.70;;;;;;4414852;32;20428;-75
2021/06/19 00:58:53;;;;;;;1.65;0.60;;;24.50;82.60;;;;;;4417518;32;20503;-76
2021/06/19 01:01:18;;;;;;;0.52;0.43;;;24.50;83.00;;;;;;4429437;32;20069;-75
2021/06/19 01:03:44;;;;;;;1.23;0.70;;;24.60;82.20;;;;;;4429793;32;20090;-74
2021/06/19 01:06:10;;;;;;;1.10;0.65;;;24.70;81.50;;;;;;4429847;32;20068;-74
2021/06/19 01:08:36;;;;;;;1.25;0.55;;;24.60;81.80;;;;;;4428953;32;20068;-74
2021/06/19 01:11:02;;;;;;;0.30;0.30;;;24.70;82.40;;;;;;4430481;32;20087;-74
2021/06/19 01:13:29;;;;;;;0.40;0.40;;;24.60;82.90;;;;;;4429148;32;20069;-74
2021/06/19 01:15:54;;;;;;;0.98;0.75;;;24.60;81.90;;;;;;4429549;32;20065;-74
2021/06/19 01:18:19;;;;;;;0.98;0.40;;;24.60;82.20;;;;;;4429388;32;20485;-74
2021/06/19 01:20:45;;;;;;;0.90;0.75;;;24.50;81.60;;;;;;4430244;32;20127;-74
2021/06/19 01:23:10;;;;;;;0.70;0.52;;;24.50;81.40;;;;;;4429026;32;20425;-74
2021/06/19 01:25:38;;;;;;;0.43;0.43;;;24.60;81.20;;;;;;4430081;32;20065;-74
2021/06/19 01:28:07;;;;;;;0.50;0.50;;;24.60;80.80;;;;;;4428641;32;20066;-74
2021/06/19 01:30:34;;;;;;;0.60;0.47;;;24.50;81.10;;;;;;4428717;32;20130;-74
2021/06/19 01:32:59;;;;;;;3.47;0.98;;;24.40;82.00;;;;;;4416081;32;20065;-74
2021/06/19 01:35:25;;;;;;;0.85;0.62;;;24.30;82.60;;;;;;4414353;32;20062;-74
2021/06/19 01:37:54;;;;;;;2.08;0.98;;;24.30;82.60;;;;;;4413965;32;20070;-75
2021/06/19 01:40:24;;;;;;;0.60;0.52;;;24.30;82.60;;;;;;4414067;32;20062;-74
2021/06/19 01:42:51;;;;;;;1.62;1.08;;;24.30;82.30;;;;;;4413672;32;20065;-74
2021/06/19 01:45:22;;;;;;;1.20;0.60;;;24.30;82.80;;;;;;4414669;32;20133;-74
2021/06/19 01:47:47;;;;;;;;;;;24.30;83.10;;;;;;4415202;32;20081;-74
2021/06/19 01:50:17;;;;;;;1.98;1.15;;;24.20;83.50;;;;;;4414418;32;20414;-74
2021/06/19 01:52:43;;;;;;;1.37;1.13;;;24.10;84.60;;;;;;4414573;32;20090;-75
2021/06/19 01:55:09;;;;;;;2.65;0.73;;;23.90;85.20;;;;;;4413511;32;20143;-74
2021/06/19 01:57:38;;;;;;;1.50;1.02;;;23.80;85.70;;;;;;4412919;32;20548;-74
2021/06/19 02:00:14;;;;;;;0.43;0.43;;;23.80;86.10;;;;;;4413905;32;20074;-74
2021/06/19 02:02:40;;;;;;;0.60;0.52;;;23.80;86.00;;;;;;4414528;32;20066;-74
2021/06/19 02:05:07;;;;;;;0.45;0.40;;;23.80;86.30;;;;;;4413730;32;20065;-74
2021/06/19 02:07:34;;;;;;;0.65;0.62;;;23.80;86.00;;;;;;4414020;32;20507;-74
2021/06/19 02:10:00;;;;;;;1.98;0.80;;;23.70;86.80;;;;;;4413721;32;20078;-75
2021/06/19 02:12:25;;;;;;;0.30;0.30;;;23.60;87.20;;;;;;4413160;32;20110;-75
2021/06/19 02:14:51;;;;;;;2.33;0.80;;;23.60;87.30;;;;;;4413775;32;20539;-75
2021/06/19 02:17:16;;;;;;;2.30;0.30;;;23.50;87.80;;;;;;4413771;32;20066;-75
2021/06/19 02:19:42;;;;;;;0.75;0.75;;;23.50;86.90;;;;;;4413724;32;20083;-75
2021/06/19 02:22:07;;;;;;;0.32;0.32;;;23.60;87.60;;;;;;4414258;32;20173;-75
2021/06/19 02:24:33;;;;;;;1.35;0.62;;;23.70;87.80;;;;;;4413028;32;20112;-75
2021/06/19 02:27:09;;;;;;;0.32;0.32;;;23.50;88.10;;;;;;4412668;32;20408;-75
2021/06/19 02:29:36;;;;;;;4.28;0.60;;;23.40;88.70;;;;;;4415467;32;20065;-75
2021/06/19 02:32:02;;;;;;;0.47;0.43;;;23.30;89.30;;;;;;4420148;32;20420;-75
2021/06/19 02:34:27;;;;;;;0.30;0.30;;;23.20;89.70;;;;;;4429362;32;20174;-74
2021/06/19 02:36:53;;;;;;;5.22;1.48;;;23.20;89.90;;;;;;4429442;32;20558;-75
2021/06/19 02:39:19;;;;;;;0.60;0.60;;;23.30;89.10;;;;;;4427756;32;20078;-76
2021/06/19 02:41:44;;;;;;;3.55;0.65;;;23.40;88.20;;;;;;4428313;32;20081;-74
2021/06/19 02:44:10;;;;;;;0.45;0.45;;;23.40;89.90;;;;;;4429426;32;20400;-74
2021/06/19 02:46:35;;;;;;;0.90;0.88;;;23.40;89.10;;;;;;4428303;32;20098;-75
2021/06/19 02:49:01;;;;;;;0.50;0.50;;;23.40;90.00;;;;;;4429149;32;20084;-75
2021/06/19 02:51:26;;;;;;;0.50;0.50;;;23.50;89.80;;;;;;4429025;32;20070;-74
2021/06/19 02:53:51;;;;;;;0.45;0.45;;;23.30;89.90;;;;;;4428171;32;20074;-75
2021/06/19 02:56:17;;;;;;;4.75;0.95;;;23.30;90.00;;;;;;4428890;32;20066;-75
2021/06/19 02:58:42;;;;;;;1.75;0.98;;;23.20;90.30;;;;;;4413304;32;20534;-75
2021/06/19 03:01:08;;;;;;;25.48;2.15;;;23.20;90.40;;;;;;4412808;32;20074;-75
2021/06/19 03:03:34;;;;;;;2.92;0.93;;;23.20;90.30;;;;;;4413927;32;20066;-75
2021/06/19 03:06:01;;;;;;;1.30;0.60;;;23.20;90.50;;;;;;4413125;32;20082;-75
2021/06/19 03:08:28;;;;;;;0.95;0.85;;;23.20;90.60;;;;;;4412341;32;20065;-74
2021/06/19 03:10:54;;;;;;;3.33;0.70;;;23.20;90.90;;;;;;4416457;32;20062;-75
2021/06/19 03:13:19;;;;;;;14.05;1.42;;;23.10;90.90;;;;;;4415081;32;20083;-74
2021/06/19 03:15:45;;;;;;;1.00;0.85;;;23.10;91.30;;;;;;4415476;32;20073;-74
2021/06/19 03:18:10;;;;;;;2.95;1.23;;;23.20;90.80;;;;;;4416343;32;20128;-74
2021/06/19 03:20:36;;;;;;;0.43;0.40;;;23.10;91.20;;;;;;4415866;32;20499;-74
2021/06/19 03:23:03;;;;;;;2.12;0.57;;;23.00;91.40;;;;;;4415617;32;20061;-75
2021/06/19 03:25:31;;;;;;;0.35;0.35;;;22.90;91.50;;;;;;4416148;32;20460;-75
2021/06/19 03:27:59;;;;;;;0.55;0.55;;;23.00;91.70;;;;;;4415611;32;20066;-75
2021/06/19 03:30:25;;;;;;;0.40;0.40;;;23.10;91.10;;;;;;4414840;32;20121;-75
2021/06/19 03:32:51;;;;;;;6.03;1.30;;;23.10;90.70;;;;;;4428825;32;20458;-75
2021/06/19 03:35:18;;;;;;;0.60;0.60;;;23.20;90.80;;;;;;4432230;32;20065;-75
2021/06/19 03:37:45;;;;;;;0.50;0.50;;;23.20;91.40;;;;;;4430871;32;20078;-74
2021/06/19 03:40:12;;;;;;;0.70;0.50;;;23.20;91.50;;;;;;4431008;32;20135;-74
2021/06/19 03:42:39;;;;;;;0.47;0.40;;;23.10;91.50;;;;;;4429987;32;20264;-75
2021/06/19 03:45:06;;;;;;;1.02;0.70;;;23.00;91.90;;;;;;4430995;32;20069;-75
2021/06/19 03:47:32;;;;;;;1.33;0.68;;;22.90;92.00;;;;;;4430531;32;20561;-75
2021/06/19 03:49:58;;;;;;;1.73;0.80;;;22.90;91.80;;;;;;4430919;32;20090;-75
2021/06/19 03:52:24;;;;;;;5.15;2.15;;;23.10;91.80;;;;;;4430845;32;20510;-75
2021/06/19 03:54:49;;;;;;;0.75;0.60;;;23.10;92.20;;;;;;4431550;32;20065;-74
2021/06/19 03:57:25;;;;;;;0.98;0.73;;;23.10;92.00;;;;;;4423923;32;20073;-74
2021/06/19 03:59:52;;;;;;;0.62;0.50;;;23.10;92.40;;;;;;4415908;32;20066;-74
2021/06/19 04:02:18;;;;;;;0.85;0.65;;;23.10;92.40;;;;;;4414712;32;20539;-75
2021/06/19 04:04:44;;;;;;;0.52;0.52;;;23.10;92.40;;;;;;4415508;32;20074;-75
2021/06/19 04:07:09;;;;;;;1.27;0.80;;;23.10;92.10;;;;;;4415225;32;20061;-75
2021/06/19 04:09:35;;;;;;;0.70;0.70;;;23.20;91.70;;;;;;4415155;32;20066;-75
2021/06/19 04:12:00;;;;;;;0.55;0.55;;;23.20;91.80;;;;;;4414339;32;20089;-75
2021/06/19 04:14:26;;;;;;;0.60;0.52;;;23.20;92.10;;;;;;4416708;32;20069;-75
2021/06/19 04:16:51;;;;;;;0.32;0.32;;;23.10;92.20;;;;;;4415433;32;20057;-74
2021/06/19 04:19:16;;;;;;;0.40;0.40;;;23.10;92.20;;;;;;4417622;32;20066;-74
2021/06/19 04:21:42;;;;;;;0.55;0.55;;;23.20;92.10;;;;;;4429662;32;20061;-75
2021/06/19 04:24:11;;;;;;;0.40;0.40;;;23.20;92.10;;;;;;4430300;32;20585;-74
2021/06/19 04:26:36;;;;;;;0.37;0.37;;;23.30;92.00;;;;;;4430430;32;20069;-75
2021/06/19 04:29:02;;;;;;;3.92;1.05;;;23.30;92.70;;;;;;4431381;32;20086;-74
2021/06/19 04:31:27;;;;;;;0.55;0.55;;;23.40;92.20;;;;;;4426848;32;20082;-74
2021/06/19 04:33:53;;;;;;;1.08;0.95;;;23.50;92.10;;;;;;4415887;32;20083;-74
2021/06/19 04:36:19;;;;;;;0.85;0.77;;;23.50;92.10;;;;;;4415351;32;20066;-74
2021/06/19 04:38:45;;;;;;;0.62;0.62;;;23.50;92.00;;;;;;4414135;32;20066;-74
2021/06/19 04:41:22;;;;;;;1.45;0.55;;;23.50;92.20;;;;;;4414971;32;20077;-75
2021/06/19 04:46:15;;;;;;;1.37;0.65;;;23.60;92.30;;;;;;4414532;32;20474;-75
2021/06/19 04:48:41;;;;;;;0.52;0.52;;;23.70;92.10;;;;;;4414695;32;20058;-74
2021/06/19 04:51:06;;;;;;;1.95;0.73;;;23.80;91.90;;;;;;4415209;32;20054;-75
2021/06/19 04:53:32;;;;;;;0.50;0.50;;;23.80;91.60;;;;;;4414135;32;20057;-75
2021/06/19 04:56:01;;;;;;;0.88;0.62;;;23.80;92.00;;;;;;4415376;32;20476;-75
2021/06/19 04:58:27;;;;;;;1.77;0.60;;;23.90;91.80;;;;;;4413992;32;20062;-75
2021/06/19 05:00:52;;;;;;;2.20;0.95;;;23.90;92.00;;;;;;4413785;32;20400;-75
2021/06/19 05:03:18;;;;;;;0.73;0.70;;;24.00;91.70;;;;;;4426284;32;20173;-74
2021/06/19 05:05:44;;;;;;;0.40;0.40;;;24.20;91.60;;;;;;4429701;32;20494;-74
2021/06/19 05:08:10;;;;;;;0.68;0.62;;;24.20;91.50;;;;;;4429514;32;20526;-75
2021/06/19 05:10:36;;;;;;;0.98;0.75;;;24.20;91.70;;;;;;4430407;32;20069;-74
2021/06/19 05:13:01;;;;;;;0.85;0.57;;;24.20;91.20;;;;;;4428911;32;20423;-75
2021/06/19 05:15:27;;;;;;;0.40;0.40;;;24.30;91.20;;;;;;4429525;32;20573;-74
2021/06/19 05:17:54;;;;;;;5.72;0.93;;;24.30;90.70;;;;;;4429683;32;20061;-75
2021/06/19 05:20:21;;;;;;;1.37;0.82;;;24.40;90.60;;;;;;4430182;32;20085;-75
2021/06/19 05:22:47;;;;;;;0.55;0.55;;;24.50;90.50;;;;;;4429447;32;20073;-75
2021/06/19 05:25:13;;;;;;;1.73;0.77;;;24.50;90.20;;;;;;4429536;32;20053;-75
2021/06/19 05:27:42;;;;;;;0.60;0.60;;;24.60;90.20;;;;;;4428336;32;20073;-75
2021/06/19 05:30:08;;;;;;;1.40;0.75;;;24.70;90.00;;;;;;4429309;32;20057;-74
2021/06/19 05:32:34;;;;;;;1.37;0.43;;;24.70;89.60;;;;;;4418476;32;20531;-75
2021/06/19 05:34:59;;;;;;;0.47;0.37;;;24.70;89.50;;;;;;4414036;32;20117;-75
2021/06/19 05:37:25;;;;;;;0.43;0.40;;;24.60;89.80;;;;;;4414322;32;20433;-75
2021/06/19 05:39:50;;;;;;;1.23;0.60;;;24.80;89.10;;;;;;4413390;32;20082;-75
2021/06/19 05:42:16;;;;;;;6.03;1.65;;;24.70;89.70;;;;;;4413447;32;20077;-75
2021/06/19 05:44:41;;;;;;;2.50;1.27;;;24.80;89.70;;;;;;4413839;32;20062;-75
2021/06/19 05:47:07;;;;;;;1.45;0.88;;;25.00;89.80;;;;;;4414139;32;20078;-75
2021/06/19 05:49:33;;;;;;;0.40;0.40;;;25.00;89.50;;;;;;4413869;32;20543;-74
2021/06/19 05:51:59;;;;;;;0.57;0.57;;;25.10;89.90;;;;;;4414173;32;20129;-74
2021/06/19 05:54:24;;;;;;;0.45;0.45;;;25.10;89.00;;;;;;4414936;32;20069;-74
2021/06/19 05:56:51;;;;;;;0.70;0.55;;;25.10;90.10;;;;;;4413929;32;20073;-75
2021/06/19 05:59:16;;;;;;;0.35;0.32;;;25.20;89.60;;;;;;4413967;32;20081;-75
2021/06/19 06:01:42;;;;;;;1.27;0.80;;;25.30;88.90;;;;;;4413427;32;20506;-75
2021/06/19 06:04:08;;;;;;;45.10;2.80;;;25.50;87.80;;;;;;4413489;32;20089;-75
2021/06/19 06:06:33;;;;;;;7.12;1.05;;;25.50;87.60;;;;;;4413674;32;20065;-75
2021/06/19 06:08:59;;;;;;;0.45;0.43;;;25.60;87.80;;;;;;4413245;32;20239;-75
2021/06/19 06:11:24;;;;;;;11.75;0.60;;;25.70;87.00;;;;;;4413356;32;20117;-75
2021/06/19 06:13:50;;;;;;;0.50;0.50;;;25.80;87.20;;;;;;4413438;32;20066;-75
2021/06/19 06:16:15;;;;;;;0.40;0.40;;;25.80;87.50;;;;;;4413722;32;20090;-75
2021/06/19 06:18:41;;;;;;;0.68;0.68;;;25.90;87.40;;;;;;4413279;32;20078;-75
2021/06/19 06:21:07;;;;;;;1.40;0.93;;;26.00;87.30;;;;;;4414606;32;20081;-75
2021/06/19 06:23:33;;;;;;;0.52;0.40;;;25.90;86.80;;;;;;4413406;32;20078;-74
2021/06/19 06:25:59;;;;;;;0.52;0.52;;;25.80;87.30;;;;;;4413293;32;20070;-75
2021/06/19 06:28:24;;;;;;;0.30;0.30;;;25.90;87.00;;;;;;4413275;32;20077;-74
2021/06/19 06:30:50;;;;;;;0.73;0.73;;;26.00;86.80;;;;;;4413850;32;20081;-74
2021/06/19 06:33:16;;;;;;;0.73;0.70;;;25.90;86.50;;;;;;4412975;32;20520;-75
2021/06/19 06:35:41;;;;;;;0.50;0.50;;;26.00;87.30;;;;;;4413516;32;20069;-74
2021/06/19 06:38:07;;;;;;;2.95;1.55;;;26.00;87.10;;;;;;4412468;32;20073;-74
2021/06/19 06:40:32;;;;;;;5.30;1.65;;;26.10;87.60;;;;;;4413525;32;20062;-74
2021/06/19 06:42:59;;;;;;;0.37;0.37;;;26.20;87.20;;;;;;4412918;32;20062;-74
2021/06/19 06:45:24;;;;;;;0.35;0.35;;;26.30;86.90;;;;;;4416319;32;20137;-74
2021/06/19 06:47:51;;;;;;;0.98;0.80;;;26.30;87.20;;;;;;4415586;32;20073;-74
2021/06/19 06:50:17;;;;;;;0.45;0.45;;;26.40;87.70;;;;;;4416812;32;20138;-74
2021/06/19 06:52:43;;;;;;;0.65;0.57;;;26.50;87.10;;;;;;4415991;32;20069;-74
2021/06/19 06:55:09;;;;;;;1.25;1.02;;;26.70;86.20;;;;;;4415748;32;20110;-75
2021/06/19 06:57:35;;;;;;;0.60;0.60;;;26.90;85.90;;;;;;4423407;32;20138;-75
2021/06/19 07:00:01;;;;;;;2.55;1.00;;;27.00;85.60;;;;;;4431362;32;20069;-75
2021/06/19 07:02:28;;;;;;;0.40;0.40;;;27.10;84.80;;;;;;4431435;32;20057;-75
2021/06/19 07:04:54;;;;;;;0.50;0.50;;;27.10;84.70;;;;;;4431566;32;20524;-75
2021/06/19 07:07:20;;;;;;;0.50;0.50;;;27.10;84.40;;;;;;4431810;32;20061;-75
2021/06/19 07:09:45;;;;;;;0.88;0.70;;;27.20;84.40;;;;;;4430048;32;20069;-76
2021/06/19 07:12:11;;;;;;;0.75;0.57;;;27.30;84.30;;;;;;4431069;32;20065;-75
2021/06/19 07:14:36;;;;;;;2.95;0.52;;;27.40;84.10;;;;;;4430887;32;20165;-75
2021/06/19 07:17:07;;;;;;;0.50;0.50;;;27.40;83.80;;;;;;4433008;32;20127;-76
2021/06/19 07:19:33;;;;;;;0.80;0.57;;;27.40;84.40;;;;;;4431379;32;20073;-76
2021/06/19 07:21:58;;;;;;;0.43;0.40;;;27.60;84.40;;;;;;4431548;32;20065;-75
2021/06/19 07:24:24;;;;;;;0.37;0.37;;;27.60;83.50;;;;;;4430625;32;20074;-75
2021/06/19 07:26:50;;;;;;;2.83;0.98;;;27.70;83.80;;;;;;4430332;32;20066;-76
2021/06/19 07:29:16;;;;;;;0.30;0.30;;;27.70;83.40;;;;;;4430740;32;20069;-74
2021/06/19 07:31:41;;;;;;;1.75;0.50;;;27.80;83.70;;;;;;4425152;32;20073;-75
2021/06/19 07:34:07;;;;;;;0.43;0.43;;;28.00;83.00;;;;;;4415661;32;20069;-75
2021/06/19 07:36:32;;;;;;;1.10;0.70;;;28.20;81.90;;;;;;4415597;32;20439;-74
2021/06/19 07:38:58;;;;;;;0.60;0.60;;;28.40;81.60;;;;;;4416085;32;20117;-74
2021/06/19 07:41:24;;;;;;;0.40;0.40;;;28.60;80.80;;;;;;4415593;32;20127;-74
2021/06/19 07:43:50;;;;;;;0.30;0.30;;;28.70;79.90;;;;;;4414752;32;20510;-75
2021/06/19 07:46:15;;;;;;;0.37;0.37;;;28.90;80.50;;;;;;4415583;32;20174;-75
2021/06/19 07:48:41;;;;;;;0.57;0.55;;;29.10;79.80;;;;;;4416011;32;20085;-75
2021/06/19 07:51:07;;;;;;;0.50;0.50;;;29.20;78.20;;;;;;4415807;32;20500;-75
2021/06/19 07:53:32;;;;;;;1.08;0.55;;;29.50;77.20;;;;;;4415483;32;20078;-76
2021/06/19 07:55:57;;;;;;;0.30;0.30;;;29.70;76.60;;;;;;4414295;32;20495;-75
2021/06/19 07:58:23;;;;;;;0.77;0.57;;;29.90;76.50;;;;;;4427407;32;20065;-75
2021/06/19 08:00:49;;;;;;;0.25;0.25;;;30.00;76.50;;;;;;4430093;32;20093;-75
2021/06/19 08:03:14;;;;;;;0.40;0.40;;;30.10;76.40;;;;;;4430997;32;20069;-75
2021/06/19 08:05:39;;;;;;;0.60;0.60;;;30.20;76.50;;;;;;4430355;32;20136;-75
2021/06/19 08:08:06;;;;;;;0.28;0.20;;;30.30;76.70;;;;;;4429991;32;20081;-75
2021/06/19 08:10:32;;;;;;;0.40;0.40;;;30.40;75.90;;;;;;4430273;32;20475;-75
2021/06/19 08:12:57;;;;;;;0.37;0.35;;;30.50;74.70;;;;;;4429928;32;20086;-75
2021/06/19 08:15:24;;;;;;;0.55;0.40;;;30.60;74.60;;;;;;4431206;32;20061;-75
2021/06/19 08:17:50;;;;;;;0.47;0.47;;;30.70;74.80;;;;;;4430303;32;20124;-75
2021/06/19 08:20:16;;;;;;;1.37;0.60;;;30.80;74.30;;;;;;4431381;32;20124;-76
2021/06/19 08:22:42;;;;;;;0.43;0.43;;;30.80;74.30;;;;;;4430968;32;20061;-75
2021/06/19 08:25:08;;;;;;;9.70;1.02;;;30.80;73.00;;;;;;4429479;32;20081;-74
2021/06/19 08:27:34;;;;;;;1.65;0.65;;;30.90;73.20;;;;;;4429753;32;20076;-76
2021/06/19 08:29:59;;;;;;;0.20;0.20;;;30.90;73.00;;;;;;4430682;32;20514;-74
2021/06/19 08:32:25;;;;;;;0.47;0.47;;;31.10;72.80;;;;;;4419959;32;20124;-74
2021/06/19 08:34:51;;;;;;;0.30;0.30;;;31.10;72.70;;;;;;4415069;32;20061;-74
2021/06/19 08:37:17;;;;;;;0.40;0.40;;;31.20;72.70;;;;;;4415006;32;20121;-74
2021/06/19 08:39:43;;;;;;;0.28;0.20;;;31.20;71.80;;;;;;4413812;32;20077;-75
2021/06/19 08:42:08;;;;;;;0.60;0.60;;;31.30;72.40;;;;;;4414359;32;20077;-74
2021/06/19 08:44:34;;;;;;;0.93;0.73;;;31.40;72.00;;;;;;4414366;32;20062;-74
2021/06/19 08:47:00;;;;;;;0.55;0.55;;;31.40;71.90;;;;;;4414817;32;20081;-75
2021/06/19 08:49:27;;;;;;;0.43;0.43;;;31.50;72.10;;;;;;4415785;32;20116;-75
2021/06/19 08:51:54;;;;;;;0.80;0.28;;;31.60;71.00;;;;;;4415025;32;20077;-74
2021/06/19 08:54:21;;;;;;;0.40;0.40;;;31.60;70.30;;;;;;4414561;32;20409;-75
2021/06/19 08:56:48;;;;;;;0.65;0.40;;;31.70;68.70;;;;;;4416536;32;20077;-74
2021/06/19 08:59:13;;;;;;;0.52;0.30;;;31.80;69.70;;;;;;4429837;32;20510;-74
2021/06/19 09:01:40;;;;;;;1.45;1.00;;;31.80;68.90;;;;;;4430150;32;20078;-75
2021/06/19 09:04:07;;;;;;;0.47;0.43;;;32.00;69.60;;;;;;4431414;32;20078;-75
2021/06/19 09:06:38;;;;;;;0.65;0.40;;;32.00;68.70;;;;;;4429616;32;20081;-75
2021/06/19 09:09:14;;;;;;;1.15;0.85;;;32.20;67.00;;;;;;4429347;32;20061;-75
2021/06/19 09:11:42;;;;;;;0.40;0.40;;;31.90;66.80;;;;;;4429014;32;20124;-75
2021/06/19 09:14:26;;;;;;;2.22;0.82;;;31.90;66.20;;;;;;4430175;32;20113;-75
2021/06/19 09:17:07;;;;;;;0.35;0.30;;;32.00;66.30;;;;;;4429596;32;20065;-75
2021/06/19 09:19:35;;;;;;;0.85;0.70;;;32.20;65.80;;;;;;4429885;32;20085;-75
2021/06/19 09:22:22;;;;;;;1.50;0.85;;;32.40;62.80;;;;;;4430470;32;20073;-75
2021/06/19 09:24:53;;;;;;;1.48;1.00;;;32.60;62.80;;;;;;4417880;32;20081;-75
2021/06/19 09:27:43;;;;;;;5.10;0.50;;;32.70;62.20;;;;;;4429109;32;20072;-75
2021/06/19 09:30:25;;;;;;;0.30;0.30;;;32.80;62.80;;;;;;4418525;32;20478;-75
2021/06/19 09:32:53;;;;;;;0.50;0.50;;;33.00;63.20;;;;;;4418090;32;20089;-75
2021/06/19 09:35:41;;;;;;;0.50;0.50;;;33.00;60.60;;;;;;4414197;32;20467;-75
2021/06/19 09:38:10;;;;;;;0.40;0.40;;;33.00;61.30;;;;;;4401912;32;20424;-74
2021/06/19 09:40:39;;;;;;;0.30;0.30;;;32.90;59.90;;;;;;4411948;32;73283;-75
2021/06/19 09:43:11;;;;;;;0.40;0.37;;;32.90;59.80;;;;;;4413492;32;20066;-75
2021/06/19 09:45:38;;;;;;;0.70;0.40;;;33.10;60.90;;;;;;4415106;32;20062;-75
2021/06/19 09:48:05;;;;;;;0.43;0.43;;;33.20;60.00;;;;;;4414416;32;20549;-75
2021/06/19 09:50:31;;;;;;;0.60;0.50;;;33.30;58.50;;;;;;4413976;32;20073;-75
2021/06/19 09:53:11;;;;;;;0.30;0.30;;;33.40;58.20;;;;;;4414218;32;20532;-75
2021/06/19 09:55:37;;;;;;;0.20;0.20;;;33.40;57.30;;;;;;4414179;32;20078;-74
2021/06/19 09:58:02;;;;;;;1.92;0.68;;;33.50;58.00;;;;;;4423951;32;20065;-75
2021/06/19 10:00:37;;;;;;;7.30;0.70;;;33.50;58.00;;;;;;4429526;32;20082;-75
2021/06/19 10:03:03;;;;;;;0.20;0.20;;;33.70;57.80;;;;;;4430124;32;20134;-74
2021/06/19 10:05:29;;;;;;;1.85;0.65;;;33.50;57.50;;;;;;4429093;32;20461;-75
2021/06/19 10:07:55;;;;;;;1.98;1.00;;;33.60;58.70;;;;;;4426965;32;20081;-73
2021/06/19 10:10:21;;;;;;;0.70;0.43;;;33.90;57.60;;;;;;4428157;32;20078;-73
2021/06/19 10:12:47;;;;;;;0.98;0.55;;;34.20;57.20;;;;;;4427623;32;20093;-74
2021/06/19 10:15:14;;;;;;;0.10;0.10;;;34.20;57.00;;;;;;4428398;32;20461;-74
2021/06/19 10:17:44;;;;;;;0.52;0.45;;;34.40;56.80;;;;;;4428415;32;20448;-74
2021/06/19 10:20:12;;;;;;;3.15;0.93;;;34.30;57.10;;;;;;4427958;32;20073;-74
2021/06/19 10:22:39;;;;;;;1.08;0.37;;;34.60;57.10;;;;;;4428301;32;20081;-74
2021/06/19 10:25:09;;;;;;;0.57;0.30;;;34.90;57.80;;;;;;4429143;32;20073;-74
2021/06/19 10:27:37;;;;;;;0.22;0.22;;;34.80;56.50;;;;;;4427389;32;20073;-74
2021/06/19 10:30:05;;;;;;;0.35;0.35;;;34.80;57.10;;;;;;4427735;32;20132;-73
2021/06/19 10:32:48;;;;;;;0.13;0.13;;;35.00;55.20;;;;;;4427983;32;20086;-73
2021/06/19 10:35:17;;;;;;;1.00;0.62;;;35.00;55.80;;;;;;4428281;32;20133;-73
2021/06/19 10:37:44;;;;;;;0.20;0.20;;;35.10;54.30;;;;;;4427963;32;20077;-74
2021/06/19 10:40:20;;;;;;;1.75;0.77;;;35.30;54.70;;;;;;4421046;32;20062;-74
2021/06/19 10:42:47;;;;;;;0.28;0.28;;;35.30;55.00;;;;;;4412441;32;20074;-75
2021/06/19 10:45:30;;;;;;;0.30;0.30;;;35.10;55.00;;;;;;4413311;32;20487;-75
2021/06/19 10:48:00;;;;;;;0.30;0.25;;;35.70;54.30;;;;;;4415925;32;20065;-75
2021/06/19 10:50:27;;;;;;;9.75;3.40;;;35.70;53.80;;;;;;4408277;32;20882;-75
2021/06/19 10:53:10;;;;;;;0.30;0.30;;;35.90;54.50;;;;;;4422577;32;20124;-75
2021/06/19 10:55:48;;;;;;;0.30;0.30;;;36.00;54.00;;;;;;4428412;32;20086;-75
2021/06/19 10:58:24;;;;;;;0.43;0.43;;;36.30;54.00;;;;;;4427421;32;20161;-75
2021/06/19 11:00:52;;;;;;;0.28;0.28;;;36.50;52.90;;;;;;4428076;32;20066;-75
2021/06/19 11:03:47;;;;;;;1.17;0.85;;;36.50;53.90;;;;;;4429033;32;20121;-75
2021/06/19 11:06:30;;;;;;;0.68;0.68;;;36.70;53.60;;;;;;4428011;32;20066;-75
2021/06/19 11:09:07;;;;;;;0.70;0.65;;;36.80;52.30;;;;;;4427972;32;20060;-75
2021/06/19 11:11:55;;;;;;;0.32;0.32;;;37.30;52.30;;;;;;4411895;32;20070;-74
2021/06/19 11:14:42;;;;;;;0.20;0.20;;;37.70;50.10;;;;;;4403111;32;20128;-74
2021/06/19 11:17:09;;;;;;;1.02;0.60;;;37.80;50.30;;;;;;4411464;32;20094;-73
2021/06/19 11:19:40;;;;;;;1.00;0.62;;;38.00;49.70;;;;;;4428530;32;20400;-74
2021/06/19 11:22:35;;;;;;;0.40;0.40;;;37.80;50.40;;;;;;4427373;32;20077;-74
2021/06/19 11:25:26;;;;;;;1.05;0.80;;;37.70;50.30;;;;;;4416475;32;20104;-74
2021/06/19 11:27:55;;;;;;;0.25;0.25;;;37.70;50.00;;;;;;4400705;32;20525;-74
2021/06/19 11:30:38;;;;;;;0.20;0.20;;;37.10;51.00;;;;;;4414550;32;20077;-74
2021/06/19 11:33:25;;;;;;;0.20;0.20;;;36.60;51.90;;;;;;4429402;32;20090;-75
2021/06/19 11:36:08;;;;;;;0.52;0.52;;;36.60;51.20;;;;;;4419004;32;20466;-74
2021/06/19 11:38:44;;;;;;;0.60;0.52;;;36.70;51.60;;;;;;4430227;32;20087;-75
2021/06/19 11:41:18;;;;;;;0.30;0.30;;;36.50;51.40;;;;;;4430537;32;20073;-75
2021/06/19 11:43:44;;;;;;;2.60;0.82;;;36.30;52.20;;;;;;4430202;32;20439;-75
2021/06/19 11:46:10;;;;;;;2.60;0.70;;;36.30;53.00;;;;;;4430176;32;20142;-74
2021/06/19 11:48:53;;;;;;;1.17;0.88;;;36.10;53.50;;;;;;4430948;32;20061;-74
2021/06/19 11:51:21;;;;;;;2.17;0.40;;;35.80;53.80;;;;;;4430715;32;20436;-75
2021/06/19 11:53:48;;;;;;;2.67;0.70;;;35.90;53.90;;;;;;4429349;32;20061;-74
2021/06/19 11:56:16;;;;;;;1.27;0.50;;;35.70;53.00;;;;;;4429203;32;20080;-75
2021/06/19 11:58:45;;;;;;;0.22;0.22;;;35.70;53.60;;;;;;4430326;32;20187;-74
2021/06/19 12:01:11;;;;;;;0.30;0.30;;;35.80;54.30;;;;;;4429898;32;20461;-74
2021/06/19 12:03:36;;;;;;;0.45;0.40;;;35.80;54.40;;;;;;4430753;32;20061;-74
2021/06/19 12:06:02;;;;;;;0.60;0.60;;;35.80;54.50;;;;;;4429750;32;20091;-74
2021/06/19 12:08:28;;;;;;;0.60;0.50;;;36.10;53.20;;;;;;4429566;32;20169;-74
2021/06/19 12:10:54;;;;;;;0.40;0.40;;;36.50;52.80;;;;;;4430657;32;20423;-75
2021/06/19 12:13:37;;;;;;;0.20;0.20;;;37.20;53.00;;;;;;4415529;32;20077;-74
2021/06/19 12:16:06;;;;;;;0.10;0.10;;;37.50;52.10;;;;;;4429050;32;20498;-74
2021/06/19 12:18:32;;;;;;;0.20;0.20;;;37.50;52.10;;;;;;4429871;32;20074;-74
2021/06/19 12:21:04;;;;;;;0.30;0.30;;;38.10;52.50;;;;;;4430456;32;20128;-74
2021/06/19 12:23:34;;;;;;;0.55;0.55;;;38.80;51.50;;;;;;4429466;32;20177;-74
2021/06/19 12:26:07;;;;;;;0.20;0.20;;;39.20;50.60;;;;;;4428760;32;20131;-74
2021/06/19 12:28:34;;;;;;;0.50;0.50;;;39.50;50.50;;;;;;4430554;32;20073;-74
2021/06/19 12:31:00;;;;;;;0.20;0.20;;;39.60;49.30;;;;;;4429394;32;20073;-75
2021/06/19 12:33:26;;;;;;;0.45;0.40;;;39.60;49.50;;;;;;4415344;32;20086;-74
2021/06/19 12:35:52;;;;;;;1.75;0.60;;;39.50;49.50;;;;;;4414696;32;20478;-74
2021/06/19 12:38:19;;;;;;;3.80;1.27;;;39.10;50.10;;;;;;4413918;32;20069;-74
2021/06/19 12:40:44;;;;;;;2.47;0.40;;;39.50;50.20;;;;;;4415794;32;20058;-74
2021/06/19 12:43:10;;;;;;;0.20;0.20;;;39.70;49.40;;;;;;4413290;32;20079;-75
2021/06/19 12:45:42;;;;;;;0.40;0.40;;;40.10;48.30;;;;;;4414656;32;20491;-74
2021/06/19 12:48:29;;;;;;;0.40;0.40;;;40.50;48.40;;;;;;4414526;32;20070;-74
2021/06/19 12:50:58;;;;;;;0.30;0.30;;;40.30;48.70;;;;;;4414379;32;20064;-74
2021/06/19 12:53:27;;;;;;;0.60;0.60;;;39.80;49.40;;;;;;4414225;32;20073;-74